Wood River Junction, Rhode Island
Current Conditions -  °F | °C
As of 12:53 AM on Saturday 20 Dec 2014 (Local Time) from KWST Reporting Station
Clear Clear  
Wind Chill: 29°   Ceiling: Unl
Heat Index: 29°   Visibility: 10mi
Dew Point: 22°   Wind: 3mph
Humidity: 75%   Direction: 290°WNW
Pressure: 30.17"   Gusts: NA
Location:  41.44°N, 71.69°W
Report Text: KWST 200553Z AUTO 29003KT 10SM CLR M02/M06 A3017 RMK AO2 SLP216 T10171056 10011 21017 53016
Loading
Personal Weather Stations






























Interactive Weather Map New forecast layout! Learn more

10-Day Weather Forecast

Advertisements
Track Severe Weather on mobile